sensor_id;sensor_type;location;lat;lon;timestamp;P1;durP1;ratioP1;P2;durP2;ratioP2
24034;SDS011;12242;50.952;4.678;2024-01-27T00:00:54;5.43;;;1.40;;
24034;SDS011;12242;50.952;4.678;2024-01-27T00:03:24;2.80;;;1.33;;
24034;SDS011;12242;50.952;4.678;2024-01-27T00:05:52;3.08;;;0.82;;
24034;SDS011;12242;50.952;4.678;2024-01-27T00:08:19;2.28;;;0.98;;
24034;SDS011;12242;50.952;4.678;2024-01-27T00:10:48;2.40;;;1.00;;
24034;SDS011;12242;50.952;4.678;2024-01-27T00:13:15;2.70;;;0.98;;
24034;SDS011;12242;50.952;4.678;2024-01-27T00:15:44;6.88;;;1.00;;
24034;SDS011;12242;50.952;4.678;2024-01-27T00:18:12;2.83;;;0.85;;
24034;SDS011;12242;50.952;4.678;2024-01-27T00:20:42;3.45;;;0.95;;
24034;SDS011;12242;50.952;4.678;2024-01-27T00:23:15;3.90;;;1.08;;
24034;SDS011;12242;50.952;4.678;2024-01-27T00:25:43;2.00;;;0.60;;
24034;SDS011;12242;50.952;4.678;2024-01-27T00:28:10;2.00;;;0.57;;
24034;SDS011;12242;50.952;4.678;2024-01-27T00:30:38;2.33;;;0.90;;
24034;SDS011;12242;50.952;4.678;2024-01-27T00:33:08;2.88;;;1.00;;
24034;SDS011;12242;50.952;4.678;2024-01-27T00:35:38;4.47;;;0.90;;
24034;SDS011;12242;50.952;4.678;2024-01-27T00:38:05;3.17;;;1.05;;
24034;SDS011;12242;50.952;4.678;2024-01-27T00:40:33;3.00;;;0.88;;
24034;SDS011;12242;50.952;4.678;2024-01-27T00:43:03;2.08;;;0.82;;
24034;SDS011;12242;50.952;4.678;2024-01-27T00:45:31;6.65;;;1.30;;
24034;SDS011;12242;50.952;4.678;2024-01-27T00:47:59;5.20;;;1.30;;
24034;SDS011;12242;50.952;4.678;2024-01-27T00:50:29;3.92;;;1.08;;
24034;SDS011;12242;50.952;4.678;2024-01-27T00:52:57;2.95;;;1.08;;
24034;SDS011;12242;50.952;4.678;2024-01-27T00:55:25;3.15;;;0.88;;
24034;SDS011;12242;50.952;4.678;2024-01-27T00:57:59;4.72;;;1.23;;
24034;SDS011;12242;50.952;4.678;2024-01-27T01:00:30;2.17;;;1.02;;
24034;SDS011;12242;50.952;4.678;2024-01-27T01:03:01;3.03;;;1.30;;
24034;SDS011;12242;50.952;4.678;2024-01-27T01:05:29;5.65;;;1.58;;
24034;SDS011;12242;50.952;4.678;2024-01-27T01:07:57;2.75;;;1.30;;
24034;SDS011;12242;50.952;4.678;2024-01-27T01:10:26;4.40;;;1.63;;
24034;SDS011;12242;50.952;4.678;2024-01-27T01:12:53;2.35;;;1.13;;
24034;SDS011;12242;50.952;4.678;2024-01-27T01:15:23;6.30;;;1.63;;
24034;SDS011;12242;50.952;4.678;2024-01-27T01:17:51;4.30;;;1.52;;
24034;SDS011;12242;50.952;4.678;2024-01-27T01:20:19;6.00;;;2.25;;
24034;SDS011;12242;50.952;4.678;2024-01-27T01:22:46;5.20;;;1.83;;
24034;SDS011;12242;50.952;4.678;2024-01-27T01:25:14;7.07;;;1.58;;
24034;SDS011;12242;50.952;4.678;2024-01-27T01:27:41;8.07;;;1.63;;
24034;SDS011;12242;50.952;4.678;2024-01-27T01:30:09;5.20;;;1.63;;
24034;SDS011;12242;50.952;4.678;2024-01-27T01:32:37;4.60;;;1.40;;
24034;SDS011;12242;50.952;4.678;2024-01-27T01:35:06;4.45;;;0.85;;
24034;SDS011;12242;50.952;4.678;2024-01-27T01:37:37;1.90;;;0.90;;
24034;SDS011;12242;50.952;4.678;2024-01-27T01:40:06;3.85;;;1.25;;
24034;SDS011;12242;50.952;4.678;2024-01-27T01:42:34;2.63;;;1.08;;
24034;SDS011;12242;50.952;4.678;2024-01-27T01:45:02;2.55;;;1.13;;
24034;SDS011;12242;50.952;4.678;2024-01-27T01:47:31;3.75;;;1.00;;
24034;SDS011;12242;50.952;4.678;2024-01-27T01:49:59;6.75;;;1.50;;
24034;SDS011;12242;50.952;4.678;2024-01-27T01:52:29;4.82;;;1.38;;
24034;SDS011;12242;50.952;4.678;2024-01-27T01:55:02;3.72;;;0.80;;
24034;SDS011;12242;50.952;4.678;2024-01-27T01:57:30;2.97;;;1.08;;
24034;SDS011;12242;50.952;4.678;2024-01-27T02:00:01;4.03;;;1.33;;
24034;SDS011;12242;50.952;4.678;2024-01-27T02:02:29;6.40;;;1.27;;
24034;SDS011;12242;50.952;4.678;2024-01-27T02:04:57;2.28;;;0.98;;
24034;SDS011;12242;50.952;4.678;2024-01-27T02:07:25;2.63;;;0.80;;
24034;SDS011;12242;50.952;4.678;2024-01-27T02:09:53;4.63;;;1.48;;
24034;SDS011;12242;50.952;4.678;2024-01-27T02:12:21;2.78;;;1.20;;
24034;SDS011;12242;50.952;4.678;2024-01-27T02:14:53;9.82;;;2.40;;
24034;SDS011;12242;50.952;4.678;2024-01-27T02:17:21;5.47;;;1.80;;
24034;SDS011;12242;50.952;4.678;2024-01-27T02:19:49;5.68;;;2.25;;
24034;SDS011;12242;50.952;4.678;2024-01-27T02:22:16;7.43;;;1.92;;
24034;SDS011;12242;50.952;4.678;2024-01-27T02:24:44;5.45;;;2.15;;
24034;SDS011;12242;50.952;4.678;2024-01-27T02:27:12;4.68;;;2.15;;
24034;SDS011;12242;50.952;4.678;2024-01-27T02:29:40;6.35;;;2.33;;
24034;SDS011;12242;50.952;4.678;2024-01-27T02:32:09;5.47;;;1.95;;
24034;SDS011;12242;50.952;4.678;2024-01-27T02:34:38;5.57;;;2.35;;
24034;SDS011;12242;50.952;4.678;2024-01-27T02:37:15;7.97;;;2.47;;
24034;SDS011;12242;50.952;4.678;2024-01-27T02:39:43;7.72;;;2.03;;
24034;SDS011;12242;50.952;4.678;2024-01-27T02:42:13;7.65;;;2.30;;
24034;SDS011;12242;50.952;4.678;2024-01-27T02:44:41;4.85;;;1.83;;
24034;SDS011;12242;50.952;4.678;2024-01-27T02:47:09;4.40;;;1.70;;
24034;SDS011;12242;50.952;4.678;2024-01-27T02:49:37;5.55;;;1.70;;
24034;SDS011;12242;50.952;4.678;2024-01-27T02:52:07;4.70;;;1.55;;
24034;SDS011;12242;50.952;4.678;2024-01-27T02:54:35;5.30;;;1.20;;
24034;SDS011;12242;50.952;4.678;2024-01-27T02:57:03;5.78;;;2.17;;
24034;SDS011;12242;50.952;4.678;2024-01-27T02:59:31;3.75;;;1.52;;
24034;SDS011;12242;50.952;4.678;2024-01-27T03:01:59;6.03;;;1.60;;
24034;SDS011;12242;50.952;4.678;2024-01-27T03:04:26;4.47;;;1.88;;
24034;SDS011;12242;50.952;4.678;2024-01-27T03:06:54;4.80;;;1.65;;
24034;SDS011;12242;50.952;4.678;2024-01-27T03:09:21;5.05;;;1.92;;
24034;SDS011;12242;50.952;4.678;2024-01-27T03:11:51;7.32;;;1.45;;
24034;SDS011;12242;50.952;4.678;2024-01-27T03:14:20;7.00;;;2.13;;
24034;SDS011;12242;50.952;4.678;2024-01-27T03:16:47;4.00;;;1.40;;
24034;SDS011;12242;50.952;4.678;2024-01-27T03:19:15;6.10;;;2.05;;
24034;SDS011;12242;50.952;4.678;2024-01-27T03:21:43;11.95;;;1.50;;
24034;SDS011;12242;50.952;4.678;2024-01-27T03:24:13;2.80;;;0.95;;
24034;SDS011;12242;50.952;4.678;2024-01-27T03:26:41;6.15;;;1.35;;
24034;SDS011;12242;50.952;4.678;2024-01-27T03:29:08;4.93;;;1.33;;
24034;SDS011;12242;50.952;4.678;2024-01-27T03:31:36;4.43;;;1.60;;
24034;SDS011;12242;50.952;4.678;2024-01-27T03:34:06;4.38;;;1.73;;
24034;SDS011;12242;50.952;4.678;2024-01-27T03:36:34;1.92;;;0.90;;
24034;SDS011;12242;50.952;4.678;2024-01-27T03:39:02;5.57;;;1.88;;
24034;SDS011;12242;50.952;4.678;2024-01-27T03:41:32;5.57;;;1.42;;
24034;SDS011;12242;50.952;4.678;2024-01-27T03:44:00;6.07;;;1.63;;
24034;SDS011;12242;50.952;4.678;2024-01-27T03:46:29;3.17;;;0.93;;
24034;SDS011;12242;50.952;4.678;2024-01-27T03:48:57;5.75;;;1.48;;
24034;SDS011;12242;50.952;4.678;2024-01-27T03:51:25;3.83;;;1.10;;
24034;SDS011;12242;50.952;4.678;2024-01-27T03:53:56;7.97;;;2.13;;
24034;SDS011;12242;50.952;4.678;2024-01-27T03:56:24;3.67;;;1.27;;
24034;SDS011;12242;50.952;4.678;2024-01-27T03:58:52;2.10;;;1.00;;
24034;SDS011;12242;50.952;4.678;2024-01-27T04:01:21;4.97;;;1.45;;
24034;SDS011;12242;50.952;4.678;2024-01-27T04:03:51;3.97;;;1.27;;
24034;SDS011;12242;50.952;4.678;2024-01-27T04:06:21;3.95;;;1.00;;
24034;SDS011;12242;50.952;4.678;2024-01-27T04:08:51;2.70;;;1.20;;
24034;SDS011;12242;50.952;4.678;2024-01-27T04:11:21;5.88;;;1.00;;
24034;SDS011;12242;50.952;4.678;2024-01-27T04:13:50;4.75;;;1.42;;
24034;SDS011;12242;50.952;4.678;2024-01-27T04:16:18;5.55;;;1.55;;
24034;SDS011;12242;50.952;4.678;2024-01-27T04:18:46;2.45;;;0.90;;
24034;SDS011;12242;50.952;4.678;2024-01-27T04:21:16;4.65;;;1.30;;
24034;SDS011;12242;50.952;4.678;2024-01-27T04:23:44;5.57;;;1.60;;
24034;SDS011;12242;50.952;4.678;2024-01-27T04:26:12;3.50;;;1.20;;
24034;SDS011;12242;50.952;4.678;2024-01-27T04:28:39;5.22;;;1.20;;
24034;SDS011;12242;50.952;4.678;2024-01-27T04:31:07;4.28;;;1.30;;
24034;SDS011;12242;50.952;4.678;2024-01-27T04:33:35;6.35;;;1.35;;
24034;SDS011;12242;50.952;4.678;2024-01-27T04:36:05;6.55;;;1.33;;
24034;SDS011;12242;50.952;4.678;2024-01-27T04:38:37;4.03;;;1.67;;
24034;SDS011;12242;50.952;4.678;2024-01-27T04:41:07;3.97;;;1.38;;
24034;SDS011;12242;50.952;4.678;2024-01-27T04:43:37;4.60;;;1.52;;
24034;SDS011;12242;50.952;4.678;2024-01-27T04:46:05;1.58;;;0.95;;
24034;SDS011;12242;50.952;4.678;2024-01-27T04:48:35;2.25;;;1.00;;
24034;SDS011;12242;50.952;4.678;2024-01-27T04:51:03;2.13;;;1.20;;
24034;SDS011;12242;50.952;4.678;2024-01-27T04:53:31;3.70;;;1.23;;
24034;SDS011;12242;50.952;4.678;2024-01-27T04:55:59;2.70;;;1.10;;
24034;SDS011;12242;50.952;4.678;2024-01-27T04:58:27;3.42;;;1.10;;
24034;SDS011;12242;50.952;4.678;2024-01-27T05:00:55;5.40;;;1.00;;
24034;SDS011;12242;50.952;4.678;2024-01-27T05:03:23;4.57;;;1.10;;
24034;SDS011;12242;50.952;4.678;2024-01-27T05:05:50;4.55;;;1.65;;
24034;SDS011;12242;50.952;4.678;2024-01-27T05:08:18;3.33;;;1.27;;
24034;SDS011;12242;50.952;4.678;2024-01-27T05:10:46;3.95;;;1.25;;
24034;SDS011;12242;50.952;4.678;2024-01-27T05:13:14;3.95;;;1.10;;
24034;SDS011;12242;50.952;4.678;2024-01-27T05:15:42;2.97;;;1.00;;
24034;SDS011;12242;50.952;4.678;2024-01-27T05:18:10;3.53;;;0.82;;
24034;SDS011;12242;50.952;4.678;2024-01-27T05:20:38;3.38;;;1.00;;
24034;SDS011;12242;50.952;4.678;2024-01-27T05:23:06;2.63;;;1.25;;
24034;SDS011;12242;50.952;4.678;2024-01-27T05:25:33;3.35;;;1.60;;
24034;SDS011;12242;50.952;4.678;2024-01-27T05:28:01;6.55;;;1.63;;
24034;SDS011;12242;50.952;4.678;2024-01-27T05:30:29;5.97;;;1.50;;
24034;SDS011;12242;50.952;4.678;2024-01-27T05:32:57;3.65;;;1.20;;
24034;SDS011;12242;50.952;4.678;2024-01-27T05:35:24;5.97;;;1.70;;
24034;SDS011;12242;50.952;4.678;2024-01-27T05:37:52;2.25;;;1.02;;
24034;SDS011;12242;50.952;4.678;2024-01-27T05:40:21;3.78;;;1.38;;
24034;SDS011;12242;50.952;4.678;2024-01-27T05:42:49;2.17;;;1.15;;
24034;SDS011;12242;50.952;4.678;2024-01-27T05:45:17;4.78;;;1.55;;
24034;SDS011;12242;50.952;4.678;2024-01-27T05:47:47;5.40;;;1.88;;
24034;SDS011;12242;50.952;4.678;2024-01-27T05:50:15;7.57;;;1.85;;
24034;SDS011;12242;50.952;4.678;2024-01-27T05:52:45;2.50;;;0.95;;
24034;SDS011;12242;50.952;4.678;2024-01-27T05:55:16;3.70;;;1.40;;
24034;SDS011;12242;50.952;4.678;2024-01-27T05:57:46;3.47;;;1.50;;
24034;SDS011;12242;50.952;4.678;2024-01-27T06:00:17;3.67;;;1.42;;
24034;SDS011;12242;50.952;4.678;2024-01-27T06:02:47;5.65;;;2.17;;
24034;SDS011;12242;50.952;4.678;2024-01-27T06:05:17;7.82;;;1.20;;
24034;SDS011;12242;50.952;4.678;2024-01-27T06:07:44;5.00;;;1.83;;
24034;SDS011;12242;50.952;4.678;2024-01-27T06:10:13;6.43;;;1.92;;
24034;SDS011;12242;50.952;4.678;2024-01-27T06:12:41;5.28;;;1.50;;
24034;SDS011;12242;50.952;4.678;2024-01-27T06:15:08;4.22;;;1.23;;
24034;SDS011;12242;50.952;4.678;2024-01-27T06:17:37;7.57;;;1.60;;
24034;SDS011;12242;50.952;4.678;2024-01-27T06:20:05;9.30;;;1.30;;
24034;SDS011;12242;50.952;4.678;2024-01-27T06:22:33;4.45;;;1.48;;
24034;SDS011;12242;50.952;4.678;2024-01-27T06:25:01;3.60;;;1.30;;
24034;SDS011;12242;50.952;4.678;2024-01-27T06:27:29;5.28;;;1.50;;
24034;SDS011;12242;50.952;4.678;2024-01-27T06:29:57;5.72;;;1.63;;
24034;SDS011;12242;50.952;4.678;2024-01-27T06:32:26;3.75;;;1.73;;
24034;SDS011;12242;50.952;4.678;2024-01-27T06:34:54;4.90;;;1.45;;
24034;SDS011;12242;50.952;4.678;2024-01-27T06:37:24;3.28;;;1.73;;
24034;SDS011;12242;50.952;4.678;2024-01-27T06:39:51;3.75;;;1.33;;
24034;SDS011;12242;50.952;4.678;2024-01-27T06:42:19;3.05;;;1.30;;
24034;SDS011;12242;50.952;4.678;2024-01-27T06:44:46;5.65;;;1.60;;
24034;SDS011;12242;50.952;4.678;2024-01-27T06:47:15;3.60;;;1.45;;
24034;SDS011;12242;50.952;4.678;2024-01-27T06:49:43;3.03;;;1.00;;
24034;SDS011;12242;50.952;4.678;2024-01-27T06:52:10;5.32;;;1.38;;
24034;SDS011;12242;50.952;4.678;2024-01-27T06:54:39;8.45;;;1.80;;
24034;SDS011;12242;50.952;4.678;2024-01-27T06:57:20;3.53;;;1.42;;
24034;SDS011;12242;50.952;4.678;2024-01-27T06:59:52;3.20;;;1.30;;
24034;SDS011;12242;50.952;4.678;2024-01-27T07:02:23;2.75;;;1.27;;
24034;SDS011;12242;50.952;4.678;2024-01-27T07:04:55;3.78;;;1.42;;
24034;SDS011;12242;50.952;4.678;2024-01-27T07:07:26;3.95;;;1.33;;
24034;SDS011;12242;50.952;4.678;2024-01-27T07:09:54;3.38;;;1.20;;
24034;SDS011;12242;50.952;4.678;2024-01-27T07:12:25;6.05;;;1.65;;
24034;SDS011;12242;50.952;4.678;2024-01-27T07:14:53;6.50;;;1.58;;
24034;SDS011;12242;50.952;4.678;2024-01-27T07:17:24;4.38;;;1.52;;
24034;SDS011;12242;50.952;4.678;2024-01-27T07:19:52;5.63;;;1.45;;
24034;SDS011;12242;50.952;4.678;2024-01-27T07:22:21;2.60;;;0.95;;
24034;SDS011;12242;50.952;4.678;2024-01-27T07:24:51;6.93;;;1.67;;
24034;SDS011;12242;50.952;4.678;2024-01-27T07:27:19;5.30;;;1.77;;
24034;SDS011;12242;50.952;4.678;2024-01-27T07:29:47;5.72;;;1.85;;
24034;SDS011;12242;50.952;4.678;2024-01-27T07:32:14;4.45;;;1.65;;
24034;SDS011;12242;50.952;4.678;2024-01-27T07:34:42;2.00;;;1.13;;
24034;SDS011;12242;50.952;4.678;2024-01-27T07:37:11;5.53;;;1.75;;
24034;SDS011;12242;50.952;4.678;2024-01-27T07:39:39;4.85;;;2.08;;
24034;SDS011;12242;50.952;4.678;2024-01-27T07:42:07;5.07;;;1.75;;
24034;SDS011;12242;50.952;4.678;2024-01-27T07:44:37;6.93;;;2.00;;
24034;SDS011;12242;50.952;4.678;2024-01-27T07:47:05;6.30;;;1.75;;
24034;SDS011;12242;50.952;4.678;2024-01-27T07:49:32;8.02;;;1.63;;
24034;SDS011;12242;50.952;4.678;2024-01-27T07:52:00;3.53;;;1.40;;
24034;SDS011;12242;50.952;4.678;2024-01-27T07:54:28;7.70;;;1.95;;
24034;SDS011;12242;50.952;4.678;2024-01-27T07:56:59;2.75;;;1.23;;
24034;SDS011;12242;50.952;4.678;2024-01-27T07:59:32;3.95;;;1.40;;
24034;SDS011;12242;50.952;4.678;2024-01-27T08:02:01;6.25;;;1.58;;
24034;SDS011;12242;50.952;4.678;2024-01-27T08:04:29;7.38;;;2.22;;
24034;SDS011;12242;50.952;4.678;2024-01-27T08:07:01;9.68;;;2.17;;
24034;SDS011;12242;50.952;4.678;2024-01-27T08:09:37;3.28;;;1.08;;
24034;SDS011;12242;50.952;4.678;2024-01-27T08:12:08;6.47;;;1.70;;
24034;SDS011;12242;50.952;4.678;2024-01-27T08:14:38;3.60;;;1.33;;
24034;SDS011;12242;50.952;4.678;2024-01-27T08:17:06;3.58;;;1.65;;
24034;SDS011;12242;50.952;4.678;2024-01-27T08:19:34;2.70;;;0.63;;
24034;SDS011;12242;50.952;4.678;2024-01-27T08:22:02;1.83;;;0.70;;
24034;SDS011;12242;50.952;4.678;2024-01-27T08:24:30;4.72;;;1.40;;
24034;SDS011;12242;50.952;4.678;2024-01-27T08:26:58;3.10;;;1.23;;
24034;SDS011;12242;50.952;4.678;2024-01-27T08:29:27;3.75;;;1.17;;
24034;SDS011;12242;50.952;4.678;2024-01-27T08:31:57;1.35;;;0.82;;
24034;SDS011;12242;50.952;4.678;2024-01-27T08:34:24;4.03;;;1.10;;
24034;SDS011;12242;50.952;4.678;2024-01-27T08:36:52;4.78;;;1.73;;
24034;SDS011;12242;50.952;4.678;2024-01-27T08:39:25;4.87;;;1.57;;
24034;SDS011;12242;50.952;4.678;2024-01-27T08:41:53;3.97;;;1.50;;
24034;SDS011;12242;50.952;4.678;2024-01-27T08:44:20;3.85;;;1.35;;
24034;SDS011;12242;50.952;4.678;2024-01-27T08:46:48;4.28;;;1.23;;
24034;SDS011;12242;50.952;4.678;2024-01-27T08:49:15;2.00;;;0.85;;
24034;SDS011;12242;50.952;4.678;2024-01-27T08:51:43;3.38;;;0.93;;
24034;SDS011;12242;50.952;4.678;2024-01-27T08:54:11;4.50;;;1.48;;
24034;SDS011;12242;50.952;4.678;2024-01-27T08:56:41;3.20;;;1.15;;
24034;SDS011;12242;50.952;4.678;2024-01-27T08:59:11;2.63;;;0.90;;
24034;SDS011;12242;50.952;4.678;2024-01-27T09:01:39;4.05;;;1.02;;
24034;SDS011;12242;50.952;4.678;2024-01-27T09:04:06;2.38;;;1.20;;
24034;SDS011;12242;50.952;4.678;2024-01-27T09:06:34;4.00;;;1.25;;
24034;SDS011;12242;50.952;4.678;2024-01-27T09:09:03;2.88;;;1.10;;
24034;SDS011;12242;50.952;4.678;2024-01-27T09:11:32;4.20;;;0.95;;
24034;SDS011;12242;50.952;4.678;2024-01-27T09:14:02;2.38;;;0.95;;
24034;SDS011;12242;50.952;4.678;2024-01-27T09:16:34;2.55;;;0.70;;
24034;SDS011;12242;50.952;4.678;2024-01-27T09:19:01;3.55;;;1.33;;
24034;SDS011;12242;50.952;4.678;2024-01-27T09:21:29;2.65;;;0.85;;
24034;SDS011;12242;50.952;4.678;2024-01-27T09:24:00;3.03;;;1.20;;
24034;SDS011;12242;50.952;4.678;2024-01-27T09:26:30;1.63;;;0.60;;
24034;SDS011;12242;50.952;4.678;2024-01-27T09:28:57;1.67;;;0.60;;
24034;SDS011;12242;50.952;4.678;2024-01-27T09:31:25;4.00;;;0.77;;
24034;SDS011;12242;50.952;4.678;2024-01-27T09:33:55;1.83;;;0.43;;
24034;SDS011;12242;50.952;4.678;2024-01-27T09:36:23;3.40;;;0.70;;
24034;SDS011;12242;50.952;4.678;2024-01-27T09:38:51;1.65;;;0.70;;
24034;SDS011;12242;50.952;4.678;2024-01-27T09:41:21;7.65;;;0.70;;
24034;SDS011;12242;50.952;4.678;2024-01-27T09:43:49;6.18;;;0.75;;
24034;SDS011;12242;50.952;4.678;2024-01-27T09:46:20;3.05;;;0.90;;
24034;SDS011;12242;50.952;4.678;2024-01-27T09:48:48;4.50;;;0.82;;
24034;SDS011;12242;50.952;4.678;2024-01-27T09:51:16;1.92;;;0.85;;
24034;SDS011;12242;50.952;4.678;2024-01-27T09:53:44;7.13;;;0.88;;
24034;SDS011;12242;50.952;4.678;2024-01-27T09:56:12;3.80;;;0.95;;
24034;SDS011;12242;50.952;4.678;2024-01-27T09:58:45;1.92;;;0.70;;
24034;SDS011;12242;50.952;4.678;2024-01-27T10:01:13;4.97;;;0.95;;
24034;SDS011;12242;50.952;4.678;2024-01-27T10:06:14;4.43;;;1.40;;
24034;SDS011;12242;50.952;4.678;2024-01-27T10:08:51;3.60;;;0.68;;
24034;SDS011;12242;50.952;4.678;2024-01-27T10:11:21;4.47;;;0.90;;
24034;SDS011;12242;50.952;4.678;2024-01-27T10:13:55;8.57;;;1.30;;
24034;SDS011;12242;50.952;4.678;2024-01-27T10:16:26;3.08;;;0.73;;
24034;SDS011;12242;50.952;4.678;2024-01-27T10:19:01;2.85;;;0.70;;
24034;SDS011;12242;50.952;4.678;2024-01-27T10:21:30;4.22;;;1.05;;
24034;SDS011;12242;50.952;4.678;2024-01-27T10:24:00;2.15;;;0.60;;
24034;SDS011;12242;50.952;4.678;2024-01-27T10:26:32;5.28;;;0.82;;
24034;SDS011;12242;50.952;4.678;2024-01-27T10:29:00;3.38;;;0.73;;
24034;SDS011;12242;50.952;4.678;2024-01-27T10:31:28;3.80;;;0.73;;
24034;SDS011;12242;50.952;4.678;2024-01-27T10:33:57;5.82;;;1.02;;
24034;SDS011;12242;50.952;4.678;2024-01-27T10:36:38;2.72;;;1.13;;
24034;SDS011;12242;50.952;4.678;2024-01-27T10:39:17;4.57;;;0.70;;
24034;SDS011;12242;50.952;4.678;2024-01-27T10:41:52;6.25;;;0.77;;
24034;SDS011;12242;50.952;4.678;2024-01-27T10:44:20;2.35;;;0.80;;
24034;SDS011;12242;50.952;4.678;2024-01-27T10:46:49;2.42;;;0.70;;
24034;SDS011;12242;50.952;4.678;2024-01-27T10:49:17;3.28;;;0.80;;
24034;SDS011;12242;50.952;4.678;2024-01-27T10:51:53;3.40;;;0.82;;
24034;SDS011;12242;50.952;4.678;2024-01-27T10:54:26;4.57;;;0.90;;
24034;SDS011;12242;50.952;4.678;2024-01-27T10:56:55;2.28;;;0.57;;
24034;SDS011;12242;50.952;4.678;2024-01-27T10:59:28;3.00;;;0.80;;
24034;SDS011;12242;50.952;4.678;2024-01-27T11:01:57;2.45;;;0.80;;
24034;SDS011;12242;50.952;4.678;2024-01-27T11:04:25;4.60;;;0.85;;
24034;SDS011;12242;50.952;4.678;2024-01-27T11:06:55;3.70;;;1.00;;
24034;SDS011;12242;50.952;4.678;2024-01-27T11:09:24;2.88;;;1.00;;
24034;SDS011;12242;50.952;4.678;2024-01-27T11:11:53;2.90;;;0.70;;
24034;SDS011;12242;50.952;4.678;2024-01-27T11:14:22;1.67;;;0.52;;
24034;SDS011;12242;50.952;4.678;2024-01-27T11:16:54;2.30;;;0.93;;
24034;SDS011;12242;50.952;4.678;2024-01-27T11:19:25;2.53;;;0.80;;
24034;SDS011;12242;50.952;4.678;2024-01-27T11:22:02;3.13;;;0.68;;
24034;SDS011;12242;50.952;4.678;2024-01-27T11:24:36;1.83;;;0.60;;
24034;SDS011;12242;50.952;4.678;2024-01-27T11:27:06;3.15;;;0.70;;
24034;SDS011;12242;50.952;4.678;2024-01-27T11:29:34;1.38;;;0.52;;
24034;SDS011;12242;50.952;4.678;2024-01-27T11:32:03;3.83;;;0.57;;
24034;SDS011;12242;50.952;4.678;2024-01-27T11:34:45;3.28;;;0.70;;
24034;SDS011;12242;50.952;4.678;2024-01-27T11:37:15;2.20;;;0.75;;
24034;SDS011;12242;50.952;4.678;2024-01-27T11:39:44;1.95;;;0.63;;
24034;SDS011;12242;50.952;4.678;2024-01-27T11:42:12;2.33;;;0.77;;
24034;SDS011;12242;50.952;4.678;2024-01-27T11:44:41;4.05;;;0.93;;
24034;SDS011;12242;50.952;4.678;2024-01-27T11:47:19;2.67;;;0.70;;
24034;SDS011;12242;50.952;4.678;2024-01-27T11:49:53;3.78;;;0.60;;
24034;SDS011;12242;50.952;4.678;2024-01-27T11:52:23;1.25;;;0.60;;
24034;SDS011;12242;50.952;4.678;2024-01-27T11:54:55;4.55;;;1.10;;
24034;SDS011;12242;50.952;4.678;2024-01-27T11:57:24;2.88;;;0.70;;
24034;SDS011;12242;50.952;4.678;2024-01-27T11:59:55;1.67;;;0.75;;
24034;SDS011;12242;50.952;4.678;2024-01-27T12:02:23;3.88;;;0.80;;
24034;SDS011;12242;50.952;4.678;2024-01-27T12:04:51;2.60;;;0.80;;
24034;SDS011;12242;50.952;4.678;2024-01-27T12:07:20;2.75;;;0.70;;
24034;SDS011;12242;50.952;4.678;2024-01-27T12:09:49;3.38;;;1.00;;
24034;SDS011;12242;50.952;4.678;2024-01-27T12:12:17;2.00;;;0.70;;
24034;SDS011;12242;50.952;4.678;2024-01-27T12:14:45;4.00;;;0.60;;
24034;SDS011;12242;50.952;4.678;2024-01-27T12:17:14;1.83;;;0.70;;
24034;SDS011;12242;50.952;4.678;2024-01-27T12:19:50;2.35;;;0.85;;
24034;SDS011;12242;50.952;4.678;2024-01-27T12:24:54;2.20;;;0.60;;
24034;SDS011;12242;50.952;4.678;2024-01-27T12:27:23;3.65;;;0.88;;
24034;SDS011;12242;50.952;4.678;2024-01-27T12:29:51;3.72;;;0.80;;
24034;SDS011;12242;50.952;4.678;2024-01-27T12:32:18;5.90;;;1.10;;
24034;SDS011;12242;50.952;4.678;2024-01-27T12:34:47;6.07;;;1.00;;
24034;SDS011;12242;50.952;4.678;2024-01-27T12:37:17;1.08;;;0.52;;
24034;SDS011;12242;50.952;4.678;2024-01-27T12:39:50;1.65;;;0.47;;
24034;SDS011;12242;50.952;4.678;2024-01-27T12:42:19;3.35;;;0.80;;
24034;SDS011;12242;50.952;4.678;2024-01-27T12:44:47;1.30;;;0.45;;
24034;SDS011;12242;50.952;4.678;2024-01-27T12:47:15;5.00;;;0.77;;
24034;SDS011;12242;50.952;4.678;2024-01-27T12:49:43;6.30;;;0.70;;
24034;SDS011;12242;50.952;4.678;2024-01-27T12:52:11;1.38;;;0.63;;
24034;SDS011;12242;50.952;4.678;2024-01-27T12:54:38;3.38;;;0.90;;
24034;SDS011;12242;50.952;4.678;2024-01-27T12:57:06;2.30;;;0.65;;
24034;SDS011;12242;50.952;4.678;2024-01-27T12:59:36;1.92;;;0.45;;
24034;SDS011;12242;50.952;4.678;2024-01-27T13:02:03;1.83;;;0.63;;
24034;SDS011;12242;50.952;4.678;2024-01-27T13:04:31;4.97;;;0.77;;
24034;SDS011;12242;50.952;4.678;2024-01-27T13:06:58;2.80;;;0.68;;
24034;SDS011;12242;50.952;4.678;2024-01-27T13:09:26;1.58;;;0.40;;
24034;SDS011;12242;50.952;4.678;2024-01-27T13:11:54;1.02;;;0.38;;
24034;SDS011;12242;50.952;4.678;2024-01-27T13:14:22;2.47;;;0.65;;
24034;SDS011;12242;50.952;4.678;2024-01-27T13:16:49;2.45;;;0.88;;
24034;SDS011;12242;50.952;4.678;2024-01-27T13:19:20;1.75;;;0.40;;
24034;SDS011;12242;50.952;4.678;2024-01-27T13:21:50;4.28;;;1.17;;
24034;SDS011;12242;50.952;4.678;2024-01-27T13:24:18;1.95;;;0.70;;
24034;SDS011;12242;50.952;4.678;2024-01-27T13:26:47;3.05;;;0.70;;
24034;SDS011;12242;50.952;4.678;2024-01-27T13:29:14;1.15;;;0.50;;
24034;SDS011;12242;50.952;4.678;2024-01-27T13:31:42;4.30;;;0.75;;
24034;SDS011;12242;50.952;4.678;2024-01-27T13:34:10;1.17;;;0.47;;
24034;SDS011;12242;50.952;4.678;2024-01-27T13:36:37;0.93;;;0.50;;
24034;SDS011;12242;50.952;4.678;2024-01-27T13:39:05;1.42;;;0.60;;
24034;SDS011;12242;50.952;4.678;2024-01-27T13:41:33;1.75;;;0.85;;
24034;SDS011;12242;50.952;4.678;2024-01-27T13:44:01;5.10;;;0.90;;
24034;SDS011;12242;50.952;4.678;2024-01-27T13:46:30;2.25;;;0.80;;
24034;SDS011;12242;50.952;4.678;2024-01-27T13:48:57;1.80;;;0.65;;
24034;SDS011;12242;50.952;4.678;2024-01-27T13:51:25;1.48;;;0.30;;
24034;SDS011;12242;50.952;4.678;2024-01-27T13:53:53;1.15;;;0.40;;
24034;SDS011;12242;50.952;4.678;2024-01-27T13:56:20;2.40;;;0.60;;
24034;SDS011;12242;50.952;4.678;2024-01-27T13:58:50;1.38;;;0.40;;
24034;SDS011;12242;50.952;4.678;2024-01-27T14:01:18;1.92;;;0.70;;
24034;SDS011;12242;50.952;4.678;2024-01-27T14:03:48;1.90;;;0.38;;
24034;SDS011;12242;50.952;4.678;2024-01-27T14:06:16;1.60;;;0.32;;
24034;SDS011;12242;50.952;4.678;2024-01-27T14:08:45;1.75;;;0.40;;
24034;SDS011;12242;50.952;4.678;2024-01-27T14:11:12;3.72;;;0.82;;
24034;SDS011;12242;50.952;4.678;2024-01-27T14:13:42;1.60;;;0.63;;
24034;SDS011;12242;50.952;4.678;2024-01-27T14:16:10;2.42;;;0.52;;
24034;SDS011;12242;50.952;4.678;2024-01-27T14:18:37;1.73;;;0.75;;
24034;SDS011;12242;50.952;4.678;2024-01-27T14:21:05;1.15;;;0.43;;
24034;SDS011;12242;50.952;4.678;2024-01-27T14:23:33;2.22;;;0.40;;
24034;SDS011;12242;50.952;4.678;2024-01-27T14:26:00;5.80;;;0.73;;
24034;SDS011;12242;50.952;4.678;2024-01-27T14:28:28;5.47;;;0.90;;
24034;SDS011;12242;50.952;4.678;2024-01-27T14:30:58;1.27;;;0.45;;
24034;SDS011;12242;50.952;4.678;2024-01-27T14:33:26;0.55;;;0.13;;
24034;SDS011;12242;50.952;4.678;2024-01-27T14:35:54;0.20;;;0.05;;
24034;SDS011;12242;50.952;4.678;2024-01-27T14:38:22;3.47;;;0.80;;
24034;SDS011;12242;50.952;4.678;2024-01-27T14:40:49;2.10;;;0.85;;
24034;SDS011;12242;50.952;4.678;2024-01-27T14:43:18;2.08;;;0.38;;
24034;SDS011;12242;50.952;4.678;2024-01-27T14:45:46;0.88;;;0.43;;
24034;SDS011;12242;50.952;4.678;2024-01-27T14:48:14;1.38;;;0.20;;
24034;SDS011;12242;50.952;4.678;2024-01-27T14:50:44;0.82;;;0.28;;
24034;SDS011;12242;50.952;4.678;2024-01-27T14:53:14;1.27;;;0.45;;
24034;SDS011;12242;50.952;4.678;2024-01-27T14:55:42;0.70;;;0.30;;
24034;SDS011;12242;50.952;4.678;2024-01-27T14:58:10;2.25;;;0.47;;
24034;SDS011;12242;50.952;4.678;2024-01-27T15:00:37;1.27;;;0.45;;
24034;SDS011;12242;50.952;4.678;2024-01-27T15:03:06;0.95;;;0.30;;